Time;durP1;ratioP1;P1;durP2;ratioP2;P2;SDS_P1;SDS_P2;PMS_P1;PMS_P2;Temp;Humidity;BMP_temperature;BMP_pressure;BME280_temperature;BME280_humidity;BME280_pressure;Samples;Min_cycle;Max_cycle;Signal;HPM_P1;HPM_P2
2023/01/31 00:01:53;;;;;;;11.43;7.37;;;;;;;1.72;100.00;97210.16;5090324;28;20230;-79
2023/01/31 00:07:33;;;;;;;10.43;6.80;;;;;;;1.78;100.00;97204.25;5103670;28;20237;-79
2023/01/31 00:10:00;;;;;;;9.50;6.37;;;;;;;1.75;100.00;97208.03;5089887;28;20209;-79
2023/01/31 00:12:27;;;;;;;11.27;7.40;;;;;;;1.73;100.00;97203.84;5076734;28;20197;-79
2023/01/31 00:14:54;;;;;;;10.63;6.30;;;;;;;1.77;100.00;97203.41;5106360;28;20227;-79
2023/01/31 00:17:21;;;;;;;10.00;6.07;;;;;;;1.80;100.00;97202.25;5084777;28;20220;-80
2023/01/31 00:19:47;;;;;;;9.23;5.83;;;;;;;1.93;100.00;97213.34;5097000;28;20203;-79
2023/01/31 00:22:14;;;;;;;9.57;6.13;;;;;;;1.94;100.00;97217.69;5088652;27;20228;-80
2023/01/31 00:24:43;;;;;;;9.30;6.00;;;;;;;1.99;100.00;97207.38;5079469;28;20253;-80
2023/01/31 00:27:10;;;;;;;9.93;6.27;;;;;;;2.01;100.00;97208.06;5076601;28;20209;-79
2023/01/31 00:29:37;;;;;;;10.90;6.83;;;;;;;2.01;100.00;97202.75;5099555;28;20200;-79
2023/01/31 00:32:04;;;;;;;10.47;6.57;;;;;;;2.07;100.00;97196.78;5078594;28;20193;-79
2023/01/31 00:34:31;;;;;;;10.37;6.47;;;;;;;2.08;100.00;97203.78;5101142;28;20208;-80
2023/01/31 00:36:58;;;;;;;10.40;6.57;;;;;;;2.10;100.00;97201.81;5092469;28;20200;-80
2023/01/31 00:39:28;;;;;;;8.43;6.10;;;;;;;2.07;100.00;97194.13;5088523;28;20254;-80
2023/01/31 00:41:57;;;;;;;9.30;6.83;;;;;;;2.11;100.00;97198.16;5107365;27;20231;-80
2023/01/31 00:44:24;;;;;;;9.90;6.83;;;;;;;2.11;100.00;97190.16;5091838;28;20204;-79
2023/01/31 00:46:51;;;;;;;12.13;7.33;;;;;;;2.15;100.00;97188.84;5097306;28;20283;-80
2023/01/31 00:49:18;;;;;;;11.20;7.33;;;;;;;2.20;100.00;97189.22;5090835;28;20208;-80
2023/01/31 00:51:45;;;;;;;11.57;7.23;;;;;;;2.18;100.00;97188.53;5099598;28;20279;-80
2023/01/31 00:54:12;;;;;;;10.87;7.10;;;;;;;2.07;100.00;97190.63;5079453;28;20199;-80
2023/01/31 00:56:39;;;;;;;12.43;7.13;;;;;;;2.05;100.00;97200.59;5084911;28;20367;-79
2023/01/31 00:59:08;;;;;;;11.40;6.90;;;;;;;1.98;100.00;97194.22;5092135;27;20312;-80
2023/01/31 01:01:36;;;;;;;13.80;7.23;;;;;;;1.93;100.00;97189.38;5089504;28;20239;-80
2023/01/31 01:04:03;;;;;;;10.97;6.67;;;;;;;1.92;100.00;97192.19;5095184;28;20201;-80
2023/01/31 01:06:33;;;;;;;11.70;7.60;;;;;;;1.86;100.00;97178.50;5091630;28;20254;-79
2023/01/31 01:09:01;;;;;;;11.43;7.27;;;;;;;1.86;100.00;97183.84;5087463;28;20275;-80
2023/01/31 01:11:29;;;;;;;10.87;6.93;;;;;;;1.85;100.00;97181.34;5092285;28;20203;-80
2023/01/31 01:13:57;;;;;;;9.97;6.93;;;;;;;1.87;100.00;97174.84;5078562;28;20295;-80
2023/01/31 01:16:27;;;;;;;13.60;7.63;;;;;;;1.95;100.00;97176.75;5091490;28;20216;-80
2023/01/31 01:18:58;;;;;;;11.27;7.17;;;;;;;2.13;100.00;97182.81;5077498;28;20207;-80
2023/01/31 01:21:26;;;;;;;10.93;6.90;;;;;;;2.14;100.00;97179.19;5097994;28;20213;-80
2023/01/31 01:23:56;;;;;;;10.23;7.03;;;;;;;2.09;100.00;97178.81;5083106;28;20228;-80
2023/01/31 01:26:25;;;;;;;12.30;7.10;;;;;;;2.06;100.00;97178.28;5100144;28;20205;-80
2023/01/31 01:28:53;;;;;;;12.00;7.07;;;;;;;2.02;100.00;97175.13;5108702;28;20203;-80
2023/01/31 01:31:21;;;;;;;10.70;7.37;;;;;;;2.02;100.00;97185.78;5089379;28;20236;-80
2023/01/31 01:33:50;;;;;;;10.07;7.00;;;;;;;1.98;100.00;97189.72;5091910;28;20257;-80
2023/01/31 01:36:24;;;;;;;10.53;7.10;;;;;;;1.97;100.00;97190.72;5086752;28;20200;-80
2023/01/31 01:38:53;;;;;;;10.57;6.87;;;;;;;1.93;100.00;97192.03;5101265;28;20287;-80
2023/01/31 01:41:21;;;;;;;9.87;6.30;;;;;;;1.96;100.00;97193.56;5099029;28;20240;-80
2023/01/31 01:43:51;;;;;;;9.37;6.37;;;;;;;1.86;100.00;97191.00;5106469;27;20294;-80
2023/01/31 01:46:24;;;;;;;10.37;7.20;;;;;;;1.77;100.00;97189.25;5101606;28;20247;-80
2023/01/31 01:48:57;;;;;;;11.83;7.37;;;;;;;1.71;100.00;97189.84;5090185;28;20228;-80
2023/01/31 01:51:25;;;;;;;11.03;7.33;;;;;;;1.69;100.00;97184.72;5103496;28;20200;-80
2023/01/31 01:53:56;;;;;;;11.37;7.30;;;;;;;1.70;100.00;97198.88;5084058;28;20204;-80
2023/01/31 01:56:28;;;;;;;10.23;6.63;;;;;;;1.70;100.00;97193.53;5079035;28;20299;-80
2023/01/31 01:59:01;;;;;;;12.10;7.17;;;;;;;1.68;100.00;97187.53;5083531;28;20226;-80
2023/01/31 02:01:31;;;;;;;10.50;7.07;;;;;;;1.65;100.00;97195.81;5097065;28;20231;-80
2023/01/31 02:04:02;;;;;;;12.03;7.67;;;;;;;1.60;100.00;97198.09;5087450;28;20207;-80
2023/01/31 02:06:31;;;;;;;12.53;7.87;;;;;;;1.53;100.00;97196.03;5089073;28;20205;-80
2023/01/31 02:08:59;;;;;;;12.07;7.27;;;;;;;1.51;100.00;97190.06;5089787;28;20187;-80
2023/01/31 02:11:28;;;;;;;13.03;8.17;;;;;;;1.52;100.00;97191.72;5087954;28;20294;-80
2023/01/31 02:14:12;;;;;;;12.80;7.60;;;;;;;1.51;100.00;97200.69;5090879;28;20199;-80
2023/01/31 02:16:43;;;;;;;11.10;7.33;;;;;;;1.54;100.00;97202.19;5087512;28;20227;-80
2023/01/31 02:19:39;;;;;;;13.73;8.07;;;;;;;1.46;100.00;97181.69;5084387;28;20200;-79
2023/01/31 02:25:37;;;;;;;12.70;7.70;;;;;;;1.57;100.00;97185.94;5106806;28;20207;-80
2023/01/31 02:28:42;;;;;;;11.93;7.73;;;;;;;1.59;100.00;97204.41;5090727;28;20498;-80
2023/01/31 02:31:45;;;;;;;15.33;8.33;;;;;;;1.60;100.00;97203.44;5091563;28;20200;-80
2023/01/31 02:34:19;;;;;;;15.40;9.03;;;;;;;1.59;100.00;97196.44;5078011;28;20258;-79
2023/01/31 02:37:01;;;;;;;16.23;8.60;;;;;;;1.59;100.00;97191.94;5083411;28;20346;-80
2023/01/31 02:39:37;;;;;;;12.73;7.87;;;;;;;1.60;100.00;97192.78;5075367;28;20233;-80
2023/01/31 02:42:13;;;;;;;15.53;8.27;;;;;;;1.57;100.00;97193.09;5099317;28;20220;-80
2023/01/31 02:45:13;;;;;;;12.67;7.80;;;;;;;1.64;100.00;97197.63;5081621;28;20201;-79
2023/01/31 02:48:01;;;;;;;12.20;7.20;;;;;;;1.65;100.00;97196.66;5097936;28;20219;-80
2023/01/31 02:50:50;;;;;;;11.13;7.60;;;;;;;1.61;100.00;97205.09;5089244;28;20215;-79
2023/01/31 02:53:30;;;;;;;12.70;7.20;;;;;;;1.56;100.00;97199.38;5081899;28;20261;-79
2023/01/31 02:56:16;;;;;;;11.43;7.63;;;;;;;1.55;100.00;97201.22;5091548;28;20249;-80
2023/01/31 02:58:49;;;;;;;14.53;8.37;;;;;;;1.55;100.00;97205.69;5083795;28;20218;-80
2023/01/31 03:01:21;;;;;;;11.70;7.47;;;;;;;1.52;100.00;97210.38;5097167;28;20228;-80
2023/01/31 03:03:49;;;;;;;12.07;7.80;;;;;;;1.51;100.00;97215.84;5081735;28;20216;-80
2023/01/31 03:06:53;;;;;;;12.23;8.27;;;;;;;1.49;100.00;97215.97;5097209;28;20193;-79
2023/01/31 03:09:29;;;;;;;12.03;7.93;;;;;;;1.42;100.00;97206.09;5085511;28;20212;-80
2023/01/31 03:12:06;;;;;;;13.27;7.80;;;;;;;1.45;100.00;97221.75;5091724;28;20212;-80
2023/01/31 03:14:42;;;;;;;11.83;7.80;;;;;;;1.44;100.00;97223.59;5087640;28;20209;-80
2023/01/31 03:17:32;;;;;;;12.77;7.33;;;;;;;1.45;100.00;97227.91;5077355;28;20202;-80
2023/01/31 03:20:10;;;;;;;12.30;7.73;;;;;;;1.46;100.00;97229.59;5103189;28;20207;-80
2023/01/31 03:22:45;;;;;;;10.70;6.83;;;;;;;1.45;100.00;97227.91;5092166;28;20236;-80
2023/01/31 03:25:15;;;;;;;13.67;8.17;;;;;;;1.43;100.00;97229.91;5087198;28;20204;-79
2023/01/31 03:27:48;;;;;;;13.00;8.13;;;;;;;1.42;100.00;97230.06;5087942;28;20240;-80
2023/01/31 03:30:22;;;;;;;11.67;8.40;;;;;;;1.37;100.00;97227.84;5094107;28;20225;-80
2023/01/31 03:32:55;;;;;;;15.73;9.00;;;;;;;1.35;100.00;97224.50;5094061;28;20204;-80
2023/01/31 03:35:27;;;;;;;13.00;8.37;;;;;;;1.34;100.00;97227.31;5099105;28;20213;-80
2023/01/31 03:38:04;;;;;;;14.90;7.80;;;;;;;1.33;100.00;97225.63;5095789;28;20254;-80
2023/01/31 03:40:37;;;;;;;11.43;8.03;;;;;;;1.33;100.00;97231.78;5090279;28;20291;-80
2023/01/31 03:43:12;;;;;;;13.27;8.13;;;;;;;1.34;100.00;97219.34;5106024;28;20262;-79
2023/01/31 03:45:50;;;;;;;12.77;7.80;;;;;;;1.35;100.00;97216.53;5090579;28;20215;-80
2023/01/31 03:48:21;;;;;;;14.33;8.00;;;;;;;1.34;100.00;97208.69;5086580;28;20268;-80
2023/01/31 03:50:57;;;;;;;16.03;8.90;;;;;;;1.30;100.00;97213.47;5083203;28;20212;-80
2023/01/31 03:53:32;;;;;;;16.80;9.27;;;;;;;1.31;100.00;97215.13;5090452;28;20220;-80
2023/01/31 03:56:04;;;;;;;13.43;8.37;;;;;;;1.35;100.00;97221.00;5079765;28;20253;-79
2023/01/31 03:58:36;;;;;;;14.27;8.50;;;;;;;1.37;100.00;97221.66;5089485;28;20212;-80
2023/01/31 04:01:07;;;;;;;11.20;7.47;;;;;;;1.40;100.00;97237.34;5089003;28;20227;-80
2023/01/31 04:03:41;;;;;;;13.47;7.93;;;;;;;1.43;100.00;97234.38;5084616;28;20228;-79
2023/01/31 04:06:09;;;;;;;13.20;8.00;;;;;;;1.47;100.00;97236.59;5089282;28;20208;-80
2023/01/31 04:08:38;;;;;;;16.63;9.30;;;;;;;1.49;100.00;97245.25;5089549;28;20200;-79
2023/01/31 04:11:13;;;;;;;13.43;8.10;;;;;;;1.47;100.00;97252.56;5091072;28;20201;-80
2023/01/31 04:13:41;;;;;;;12.87;8.20;;;;;;;1.42;100.00;97251.34;5105287;28;20203;-80
2023/01/31 04:16:22;;;;;;;14.13;8.70;;;;;;;1.43;100.00;97250.34;5094635;28;20349;-80
2023/01/31 04:18:51;;;;;;;16.37;8.77;;;;;;;1.42;100.00;97248.69;5080882;28;20216;-79
2023/01/31 04:21:20;;;;;;;15.00;8.70;;;;;;;1.47;100.00;97252.56;5092315;28;20234;-79
2023/01/31 04:23:49;;;;;;;12.33;9.00;;;;;;;1.46;100.00;97248.22;5091362;28;20280;-80
2023/01/31 04:26:16;;;;;;;13.27;8.17;;;;;;;1.45;100.00;97254.53;5081425;28;20213;-80
2023/01/31 04:28:43;;;;;;;13.53;8.53;;;;;;;1.46;100.00;97258.84;5093623;28;20220;-79
2023/01/31 04:31:10;;;;;;;12.53;8.10;;;;;;;1.39;100.00;97247.16;5093543;28;20215;-79
2023/01/31 04:33:37;;;;;;;15.03;8.63;;;;;;;1.44;100.00;97252.03;5092686;28;20214;-80
2023/01/31 04:36:11;;;;;;;12.83;8.20;;;;;;;1.37;100.00;97245.63;5083402;28;20192;-80
2023/01/31 04:38:46;;;;;;;13.07;9.03;;;;;;;1.42;100.00;97259.31;5104816;28;20252;-79
2023/01/31 04:41:28;;;;;;;14.00;8.70;;;;;;;1.42;100.00;97267.31;5107591;28;20200;-80
2023/01/31 04:43:58;;;;;;;15.77;9.57;;;;;;;1.38;100.00;97264.09;5086799;28;20243;-79
2023/01/31 04:46:25;;;;;;;13.50;9.30;;;;;;;1.29;100.00;97254.34;5109206;28;20204;-80
2023/01/31 04:49:08;;;;;;;15.53;8.67;;;;;;;1.24;100.00;97250.50;5102848;28;20199;-79
2023/01/31 04:51:41;;;;;;;13.67;9.00;;;;;;;1.35;100.00;97263.59;5102135;28;20252;-80
2023/01/31 04:54:11;;;;;;;16.70;8.40;;;;;;;1.31;100.00;97257.72;5083210;28;20242;-80
2023/01/31 04:56:57;;;;;;;14.73;9.73;;;;;;;1.27;100.00;97256.34;5106822;28;20204;-79
2023/01/31 04:59:33;;;;;;;16.87;9.60;;;;;;;1.37;100.00;97270.41;5086017;28;20208;-79
2023/01/31 05:02:07;;;;;;;17.77;9.53;;;;;;;1.35;100.00;97264.41;5105740;28;20208;-79
2023/01/31 05:04:34;;;;;;;15.50;9.53;;;;;;;1.35;100.00;97261.75;5094708;28;20227;-79
2023/01/31 05:07:07;;;;;;;19.77;11.37;;;;;;;1.33;100.00;97266.38;5085365;28;20266;-79
2023/01/31 05:09:44;;;;;;;17.23;10.00;;;;;;;1.33;100.00;97276.19;5092316;28;20210;-79
2023/01/31 05:12:38;;;;;;;18.00;10.47;;;;;;;1.27;100.00;97280.31;5098821;28;20223;-79
2023/01/31 05:15:10;;;;;;;20.07;12.87;;;;;;;1.26;100.00;97272.47;5093915;28;20255;-79
2023/01/31 05:17:37;;;;;;;17.93;10.67;;;;;;;1.22;100.00;97269.25;5091362;28;20209;-79
2023/01/31 05:20:09;;;;;;;19.50;10.87;;;;;;;1.35;100.00;97300.84;5083161;28;20202;-79
2023/01/31 05:22:39;;;;;;;16.87;10.73;;;;;;;1.37;100.00;97289.03;5086595;28;20282;-79
2023/01/31 05:25:07;;;;;;;17.30;9.93;;;;;;;1.38;100.00;97287.22;5079775;28;20206;-79
2023/01/31 05:27:35;;;;;;;15.33;9.73;;;;;;;1.40;100.00;97277.25;5091642;28;20262;-79
2023/01/31 05:30:23;;;;;;;22.83;10.80;;;;;;;1.38;100.00;97281.88;5091675;28;20229;-78
2023/01/31 05:32:53;;;;;;;18.30;11.00;;;;;;;1.35;100.00;97285.72;5090241;28;20203;-79
2023/01/31 05:35:38;;;;;;;23.03;12.67;;;;;;;1.28;100.00;97268.66;5103241;28;20250;-79
2023/01/31 05:38:16;;;;;;;18.63;11.20;;;;;;;1.28;100.00;97281.09;5088310;28;20204;-79
2023/01/31 05:40:44;;;;;;;19.53;11.93;;;;;;;1.31;100.00;97279.00;5092531;28;20223;-79
2023/01/31 05:43:22;;;;;;;19.77;12.07;;;;;;;1.39;100.00;97292.38;5109329;28;20241;-79
2023/01/31 05:46:08;;;;;;;18.73;11.73;;;;;;;1.39;100.00;97287.06;5101154;28;20191;-78
2023/01/31 05:48:35;;;;;;;19.10;10.60;;;;;;;1.45;100.00;97299.75;5091460;28;20291;-79
2023/01/31 05:51:10;;;;;;;26.30;12.60;;;;;;;1.45;100.00;97307.75;5085734;28;20207;-79
2023/01/31 05:53:41;;;;;;;21.97;12.00;;;;;;;1.48;100.00;97312.78;5091478;28;20292;-79
2023/01/31 05:56:13;;;;;;;19.70;11.90;;;;;;;1.45;100.00;97307.75;5088518;28;20215;-79
2023/01/31 05:58:42;;;;;;;18.57;10.83;;;;;;;1.41;100.00;97309.06;5089261;28;20211;-79
2023/01/31 06:01:09;;;;;;;19.40;12.27;;;;;;;1.46;100.00;97324.56;5087572;28;20210;-79
2023/01/31 06:03:41;;;;;;;20.73;12.87;;;;;;;1.48;100.00;97327.91;5102472;28;20281;-79
2023/01/31 06:06:08;;;;;;;23.10;14.00;;;;;;;1.51;100.00;97333.78;5099573;28;20286;-79
2023/01/31 06:08:45;;;;;;;21.53;13.80;;;;;;;1.49;100.00;97325.09;5077786;28;20204;-79
2023/01/31 06:11:25;;;;;;;21.17;12.77;;;;;;;1.43;100.00;97317.72;5092773;28;20300;-78
2023/01/31 06:13:57;;;;;;;16.33;11.77;;;;;;;1.47;100.00;97310.25;5083198;28;20190;-79
2023/01/31 06:16:27;;;;;;;21.37;12.50;;;;;;;1.48;100.00;97309.28;5097865;28;20224;-79
2023/01/31 06:18:57;;;;;;;17.97;12.10;;;;;;;1.43;100.00;97307.09;5091526;28;20219;-79
2023/01/31 06:21:30;;;;;;;20.70;11.80;;;;;;;1.51;100.00;97323.13;5103010;28;20219;-79
2023/01/31 06:23:57;;;;;;;19.23;11.90;;;;;;;1.41;100.00;97300.22;5088300;28;20235;-79
2023/01/31 06:26:24;;;;;;;19.37;11.97;;;;;;;1.55;100.00;97328.13;5089831;28;20296;-79
2023/01/31 06:28:51;;;;;;;19.13;11.90;;;;;;;1.41;100.00;97301.06;5111006;28;20196;-79
2023/01/31 06:31:20;;;;;;;21.10;11.97;;;;;;;1.44;100.00;97311.44;5107063;28;20195;-79
2023/01/31 06:33:49;;;;;;;20.23;11.97;;;;;;;1.49;100.00;97327.78;5088701;28;20210;-79
2023/01/31 06:36:21;;;;;;;17.77;11.37;;;;;;;1.36;100.00;97316.63;5091953;28;20203;-79
2023/01/31 06:38:53;;;;;;;22.93;11.37;;;;;;;1.49;100.00;97341.06;5090303;28;20205;-79
2023/01/31 06:41:20;;;;;;;20.43;11.53;;;;;;;1.43;100.00;97331.03;5088305;28;20199;-79
2023/01/31 06:43:48;;;;;;;22.80;12.10;;;;;;;1.39;100.00;97334.97;5087921;28;20218;-79
2023/01/31 06:46:17;;;;;;;22.87;12.70;;;;;;;1.40;100.00;97335.81;5110311;28;20207;-80
2023/01/31 06:48:47;;;;;;;23.60;12.17;;;;;;;1.39;100.00;97340.28;5089926;28;20211;-79
2023/01/31 06:51:14;;;;;;;21.47;12.37;;;;;;;1.42;100.00;97350.66;5088604;28;20299;-79
2023/01/31 06:53:41;;;;;;;20.27;11.57;;;;;;;1.36;100.00;97351.22;5090698;28;20204;-79
2023/01/31 06:56:08;;;;;;;21.67;12.50;;;;;;;1.39;100.00;97356.25;5096708;28;20258;-79
2023/01/31 06:58:36;;;;;;;19.77;11.87;;;;;;;1.39;100.00;97356.25;5087374;28;20202;-79
2023/01/31 07:01:10;;;;;;;19.10;11.53;;;;;;;1.36;100.00;97356.53;5096291;28;20268;-80
2023/01/31 07:03:38;;;;;;;18.80;11.10;;;;;;;1.48;100.00;97359.84;5094478;28;20322;-80
2023/01/31 07:06:08;;;;;;;17.47;10.23;;;;;;;1.42;100.00;97363.97;5089742;28;20221;-79
2023/01/31 07:08:44;;;;;;;18.60;12.03;;;;;;;1.42;100.00;97355.13;5088822;28;20261;-79
2023/01/31 07:11:20;;;;;;;18.63;11.10;;;;;;;1.37;100.00;97357.38;5107068;28;20207;-79
2023/01/31 07:13:55;;;;;;;23.67;12.47;;;;;;;1.39;100.00;97374.88;5095394;28;20197;-79
2023/01/31 07:16:24;;;;;;;21.37;12.77;;;;;;;1.35;100.00;97360.22;5087582;28;20254;-79
2023/01/31 07:19:15;;;;;;;21.93;13.60;;;;;;;1.35;100.00;97362.03;5090923;28;20210;-80
2023/01/31 07:21:43;;;;;;;22.70;12.33;;;;;;;1.47;100.00;97379.47;5091389;28;20215;-79
2023/01/31 07:24:10;;;;;;;20.73;11.50;;;;;;;1.39;100.00;97360.75;5084600;28;20216;-80
2023/01/31 07:26:37;;;;;;;21.67;12.00;;;;;;;1.39;100.00;97358.91;5068125;28;20203;-80
2023/01/31 07:29:04;;;;;;;22.47;12.87;;;;;;;1.45;100.00;97365.47;5088458;28;20196;-79
2023/01/31 07:31:35;;;;;;;19.80;11.83;;;;;;;1.43;100.00;97370.97;5073034;28;20292;-80
2023/01/31 07:34:06;;;;;;;22.13;11.90;;;;;;;1.39;100.00;97366.91;5073642;28;20200;-79
2023/01/31 07:36:38;;;;;;;23.70;12.43;;;;;;;1.37;100.00;97363.53;5065697;28;20285;-80
2023/01/31 07:39:10;;;;;;;20.27;12.27;;;;;;;1.43;100.00;97356.81;5062190;28;20201;-80
2023/01/31 07:41:37;;;;;;;19.20;12.03;;;;;;;1.44;100.00;97354.00;5078507;28;20241;-80
2023/01/31 07:44:07;;;;;;;20.87;11.60;;;;;;;1.43;100.00;97362.13;5071883;28;20247;-80
2023/01/31 07:46:35;;;;;;;17.50;11.50;;;;;;;1.43;100.00;97355.00;5092540;28;20211;-80
2023/01/31 07:49:02;;;;;;;22.27;13.53;;;;;;;1.43;100.00;97352.31;5062872;28;20203;-80
2023/01/31 07:51:29;;;;;;;25.03;14.20;;;;;;;1.38;100.00;97349.25;5069286;28;20224;-80
2023/01/31 07:53:56;;;;;;;25.13;13.67;;;;;;;1.39;100.00;97358.91;5071661;28;20204;-81
2023/01/31 07:56:29;;;;;;;19.40;12.40;;;;;;;1.42;100.00;97350.66;5086569;28;20257;-80
2023/01/31 07:58:56;;;;;;;21.67;13.23;;;;;;;1.33;100.00;97356.03;5069602;28;20204;-80
2023/01/31 08:04:12;;;;;;;24.77;12.30;;;;;;;1.30;100.00;97359.81;5065672;28;20228;-80
2023/01/31 08:06:40;;;;;;;19.73;12.20;;;;;;;1.27;100.00;97354.81;5074476;28;20201;-80
2023/01/31 08:09:07;;;;;;;19.03;11.80;;;;;;;1.32;100.00;97360.50;5078738;28;20205;-80
2023/01/31 08:11:35;;;;;;;18.53;10.87;;;;;;;1.29;100.00;97370.59;5073522;28;20197;-80
2023/01/31 08:14:02;;;;;;;19.23;10.33;;;;;;;1.23;100.00;97365.88;5072525;28;20230;-80
2023/01/31 08:16:30;;;;;;;35.93;18.43;;;;;;;1.08;100.00;97357.53;5083175;28;20224;-80
2023/01/31 08:18:57;;;;;;;22.67;12.83;;;;;;;1.04;100.00;97366.78;5076684;28;20196;-80
2023/01/31 08:21:24;;;;;;;17.13;10.43;;;;;;;0.94;100.00;97355.34;5077364;28;20217;-80
2023/01/31 08:23:52;;;;;;;15.47;8.23;;;;;;;0.97;100.00;97349.75;5082326;28;20238;-79
2023/01/31 08:26:21;;;;;;;16.17;9.17;;;;;;;1.03;100.00;97365.09;5094074;28;20213;-80
2023/01/31 08:28:51;;;;;;;15.57;9.10;;;;;;;1.00;100.00;97360.09;5104364;28;20199;-80
2023/01/31 08:31:21;;;;;;;17.83;9.60;;;;;;;1.03;100.00;97357.13;5091122;28;20203;-80
2023/01/31 08:33:50;;;;;;;13.17;9.00;;;;;;;1.02;100.00;97358.13;5090017;28;20209;-80
2023/01/31 08:36:19;;;;;;;15.47;8.37;;;;;;;1.04;100.00;97361.47;5088198;28;20203;-80
2023/01/31 08:38:47;;;;;;;11.67;7.63;;;;;;;0.97;100.00;97355.06;5090139;28;20224;-80
2023/01/31 08:41:15;;;;;;;14.37;8.03;;;;;;;1.03;100.00;97370.44;5091986;28;20199;-80
2023/01/31 08:43:42;;;;;;;13.33;8.03;;;;;;;0.97;100.00;97368.34;5082842;28;20256;-80
2023/01/31 08:46:11;;;;;;;11.43;7.60;;;;;;;0.91;100.00;97366.28;5089404;28;20204;-80
2023/01/31 08:48:41;;;;;;;12.03;6.77;;;;;;;1.02;100.00;97385.53;5095306;28;20205;-80
2023/01/31 08:51:10;;;;;;;10.93;7.30;;;;;;;0.91;100.00;97376.94;5101451;28;20206;-79
2023/01/31 08:53:38;;;;;;;8.07;5.60;;;;;;;1.02;100.00;97380.22;5092327;28;20214;-79
2023/01/31 08:56:08;;;;;;;9.40;5.83;;;;;;;1.07;100.00;97383.31;5090606;28;20200;-79
2023/01/31 08:58:41;;;;;;;14.97;9.73;;;;;;;1.08;100.00;97378.81;5107696;27;20226;-80
2023/01/31 09:01:11;;;;;;;11.07;7.03;;;;;;;1.13;100.00;97377.38;5096512;28;20236;-79
2023/01/31 09:03:38;;;;;;;9.03;5.83;;;;;;;1.13;100.00;97388.03;5085937;28;20265;-80
2023/01/31 09:06:08;;;;;;;14.13;9.27;;;;;;;1.24;100.00;97388.84;5080261;28;20271;-80
2023/01/31 09:08:35;;;;;;;9.63;6.17;;;;;;;1.33;100.00;97396.78;5091485;28;20217;-79
2023/01/31 09:11:02;;;;;;;14.80;9.23;;;;;;;1.42;100.00;97400.38;5096390;28;20207;-79
2023/01/31 09:13:31;;;;;;;8.70;5.90;;;;;;;1.38;100.00;97399.81;5090881;28;20211;-80
2023/01/31 09:15:59;;;;;;;8.80;4.63;;;;;;;1.42;100.00;97406.53;5086101;27;20239;-80
2023/01/31 09:18:28;;;;;;;9.03;5.63;;;;;;;1.45;100.00;97408.03;5089067;28;20231;-80
2023/01/31 09:20:55;;;;;;;8.17;5.50;;;;;;;1.39;100.00;97396.19;5082359;28;20204;-80
2023/01/31 09:23:23;;;;;;;8.97;6.30;;;;;;;1.54;100.00;97401.84;5106597;28;20239;-80
2023/01/31 09:25:54;;;;;;;9.23;5.13;;;;;;;1.61;100.00;97396.78;5084356;28;20216;-80
2023/01/31 09:28:22;;;;;;;10.77;5.93;;;;;;;1.67;100.00;97390.84;5089599;28;20307;-81
2023/01/31 09:30:54;;;;;;;10.23;6.77;;;;;;;1.77;100.00;97397.78;5090913;28;20206;-80
2023/01/31 09:33:23;;;;;;;12.57;6.80;;;;;;;1.70;100.00;97385.22;5075313;28;20205;-80
2023/01/31 09:35:58;;;;;;;11.93;7.27;;;;;;;1.92;100.00;97398.09;5080395;28;20318;-80
2023/01/31 09:38:25;;;;;;;11.37;7.03;;;;;;;2.00;100.00;97389.34;5094407;28;20215;-80
2023/01/31 09:40:56;;;;;;;10.50;5.93;;;;;;;2.10;100.00;97393.63;5084478;28;20214;-80
2023/01/31 09:43:26;;;;;;;15.77;7.67;;;;;;;2.13;100.00;97393.31;5105937;27;20534;-80
2023/01/31 09:45:58;;;;;;;10.17;7.13;;;;;;;2.10;100.00;97376.81;5096054;27;20330;-80
2023/01/31 09:48:31;;;;;;;9.93;6.27;;;;;;;2.23;100.00;97393.22;5087183;28;20220;-80
2023/01/31 09:50:59;;;;;;;10.00;6.53;;;;;;;2.26;100.00;97392.94;5086135;28;20196;-81
2023/01/31 09:53:32;;;;;;;25.13;6.00;;;;;;;2.30;100.00;97388.97;5086933;28;20226;-80
2023/01/31 09:56:14;;;;;;;11.93;5.00;;;;;;;2.36;100.00;97400.84;5108042;28;20204;-80
2023/01/31 09:58:52;;;;;;;4.80;3.47;;;;;;;2.40;100.00;97394.22;5092543;28;20257;-80
2023/01/31 10:01:26;;;;;;;4.83;3.50;;;;;;;2.42;100.00;97397.56;5093492;28;20204;-81
2023/01/31 10:04:16;;;;;;;3.87;3.10;;;;;;;2.54;100.00;97413.19;5088032;28;20201;-82
2023/01/31 10:06:54;;;;;;;6.37;4.17;;;;;;;2.51;100.00;97399.31;5087730;28;20207;-80
2023/01/31 10:09:29;;;;;;;5.33;3.30;;;;;;;2.63;100.00;97406.09;5101763;28;20298;-81
2023/01/31 10:12:00;;;;;;;4.90;3.50;;;;;;;2.74;100.00;97407.63;5087639;28;20208;-81
2023/01/31 10:14:34;;;;;;;5.27;3.30;;;;;;;2.83;100.00;97406.72;5087852;28;20204;-81
2023/01/31 10:17:12;;;;;;;4.33;3.23;;;;;;;3.02;100.00;97403.84;5104773;27;20238;-81
2023/01/31 10:19:46;;;;;;;4.60;2.93;;;;;;;2.85;100.00;97389.56;5086761;28;20207;-81
2023/01/31 10:22:22;;;;;;;3.60;2.60;;;;;;;2.95;100.00;97384.13;5087134;28;20231;-80
2023/01/31 10:24:55;;;;;;;5.43;3.47;;;;;;;3.03;100.00;97368.16;5101423;28;20240;-81
2023/01/31 10:27:40;;;;;;;5.40;3.20;;;;;;;3.30;100.00;97367.97;5098304;28;20260;-81
2023/01/31 10:30:16;;;;;;;4.17;3.00;;;;;;;3.33;100.00;97348.13;5083586;28;20294;-80
2023/01/31 10:32:47;;;;;;;4.60;2.90;;;;;;;3.31;100.00;97342.13;5096725;28;20210;-80
2023/01/31 10:35:20;;;;;;;7.07;3.43;;;;;;;3.45;100.00;97351.34;5102102;28;20197;-80
2023/01/31 10:37:53;;;;;;;4.50;3.20;;;;;;;3.56;100.00;97351.88;5085303;28;20265;-79
2023/01/31 10:40:24;;;;;;;4.50;3.13;;;;;;;3.51;100.00;97359.53;5087348;28;20208;-80
2023/01/31 10:42:55;;;;;;;4.07;2.83;;;;;;;3.45;100.00;97343.31;5081286;28;20208;-81
2023/01/31 10:45:29;;;;;;;4.23;3.07;;;;;;;3.55;100.00;97344.03;5088205;28;20224;-80
2023/01/31 10:48:06;;;;;;;3.20;2.57;;;;;;;3.54;100.00;97355.72;5084781;28;20193;-80
2023/01/31 10:50:40;;;;;;;4.50;2.33;;;;;;;3.50;100.00;97339.16;5093721;28;20211;-80
2023/01/31 10:53:26;;;;;;;2.50;2.07;;;;;;;3.53;100.00;97343.34;5102385;28;20195;-80
2023/01/31 10:56:02;;;;;;;3.17;2.10;;;;;;;3.70;100.00;97329.88;5105033;28;20208;-81
2023/01/31 10:58:29;;;;;;;3.17;2.10;;;;;;;3.79;100.00;97336.91;5089558;28;20256;-81
2023/01/31 11:00:57;;;;;;;3.77;2.70;;;;;;;3.88;100.00;97339.59;5083905;28;20291;-81
2023/01/31 11:03:25;;;;;;;3.37;2.50;;;;;;;3.85;100.00;97340.75;5101949;28;20209;-80
2023/01/31 11:06:05;;;;;;;3.17;2.10;;;;;;;4.11;100.00;97344.13;5088979;28;20232;-80
2023/01/31 11:08:42;;;;;;;3.77;2.70;;;;;;;4.54;100.00;97342.97;5085277;28;20207;-81
2023/01/31 11:11:11;;;;;;;2.37;2.07;;;;;;;4.55;100.00;97327.78;5088722;28;20200;-80
2023/01/31 11:13:39;;;;;;;3.13;2.47;;;;;;;4.87;100.00;97330.38;5086836;28;20287;-80
2023/01/31 11:16:09;;;;;;;4.03;2.53;;;;;;;4.82;100.00;97330.06;5087641;28;20216;-80
2023/01/31 11:18:54;;;;;;;2.87;2.30;;;;;;;5.05;100.00;97298.06;5093593;28;20209;-81
2023/01/31 11:21:24;;;;;;;3.77;2.47;;;;;;;5.55;97.16;97315.56;5088304;28;20243;-81
2023/01/31 11:23:56;;;;;;;3.87;2.73;;;;;;;5.54;98.61;97308.53;5109698;28;20231;-81
2023/01/31 11:26:33;;;;;;;3.50;2.40;;;;;;;5.64;97.65;97298.44;5087852;28;20228;-81
2023/01/31 11:29:02;;;;;;;3.90;3.00;;;;;;;6.02;100.00;97300.25;5091198;28;20204;-82
2023/01/31 11:31:34;;;;;;;4.17;2.60;;;;;;;6.17;95.44;97294.94;5101913;28;20196;-82
2023/01/31 11:34:03;;;;;;;4.20;2.50;;;;;;;6.50;94.51;97286.63;5082720;28;20222;-82
2023/01/31 11:36:33;;;;;;;3.17;2.40;;;;;;;6.48;93.81;97302.88;5107040;28;20184;-82
2023/01/31 11:39:24;;;;;;;2.43;2.03;;;;;;;6.55;91.89;97293.09;5091074;28;20230;-81
2023/01/31 11:41:52;;;;;;;3.20;2.33;;;;;;;6.62;90.06;97294.06;5108155;27;20231;-83
2023/01/31 11:44:20;;;;;;;2.57;2.10;;;;;;;6.41;89.47;97292.06;5084980;28;20214;-82
2023/01/31 11:46:51;;;;;;;2.97;2.10;;;;;;;6.60;89.47;97296.09;5095777;28;20206;-80
2023/01/31 11:49:24;;;;;;;2.50;1.87;;;;;;;6.52;87.97;97282.75;5091106;28;20197;-80
2023/01/31 11:51:51;;;;;;;2.20;1.80;;;;;;;6.08;86.20;97287.97;5097396;28;20249;-80
2023/01/31 11:54:24;;;;;;;2.23;1.73;;;;;;;6.30;85.64;97278.22;5086404;28;20263;-80
2023/01/31 11:56:51;;;;;;;3.13;1.73;;;;;;;6.38;85.51;97270.13;5090009;28;20215;-79
2023/01/31 11:59:22;;;;;;;2.30;1.70;;;;;;;6.74;85.22;97265.72;5086563;28;20204;-80